Time;durP1;ratioP1;P1;durP2;ratioP2;P2;SDS_P1;SDS_P2;PMS_P1;PMS_P2;Temp;Humidity;BMP_temperature;BMP_pressure;BME280_temperature;BME280_humidity;BME280_pressure;Samples;Min_cycle;Max_cycle;Signal;HPM_P1;HPM_P2
2020/12/04 00:00:15;;;;;;;12.38;7.63;;;5.10;99.90;;;;;;4156804;28;20045;-72
2020/12/04 00:02:17;;;;;;;10.40;7.10;;;5.00;99.90;;;;;;4143558;28;20529;-72
2020/12/04 00:04:18;;;;;;;8.98;5.78;;;5.00;99.90;;;;;;4160114;28;20280;-72
2020/12/04 00:06:18;;;;;;;10.82;6.90;;;5.00;99.90;;;;;;4160046;28;20042;-72
2020/12/04 00:08:19;;;;;;;11.55;6.97;;;5.00;99.90;;;;;;4160092;28;20385;-72
2020/12/04 00:10:20;;;;;;;10.57;6.63;;;5.00;99.90;;;;;;4159755;28;20033;-72
2020/12/04 00:12:21;;;;;;;9.65;6.57;;;5.00;99.90;;;;;;4158401;28;20045;-72
2020/12/04 00:14:21;;;;;;;9.38;6.45;;;5.10;99.90;;;;;;4161076;28;20041;-72
2020/12/04 00:16:22;;;;;;;10.18;7.03;;;5.10;99.90;;;;;;4159390;28;20038;-72
2020/12/04 00:18:22;;;;;;;11.00;7.13;;;5.00;99.90;;;;;;4160968;28;20109;-72
2020/12/04 00:20:23;;;;;;;9.25;6.43;;;5.00;99.90;;;;;;4161191;28;20046;-72
2020/12/04 00:22:23;;;;;;;11.68;6.38;;;5.10;99.90;;;;;;4161021;28;20045;-72
2020/12/04 00:24:24;;;;;;;10.10;6.78;;;5.00;99.90;;;;;;4160910;28;20049;-72
2020/12/04 00:26:25;;;;;;;10.25;6.60;;;5.00;99.90;;;;;;4161328;28;20451;-72
2020/12/04 00:28:25;;;;;;;10.25;5.97;;;5.00;99.90;;;;;;4146989;28;20044;-72
2020/12/04 00:30:27;;;;;;;9.93;6.47;;;5.00;99.90;;;;;;4144445;28;20044;-72
2020/12/04 00:32:27;;;;;;;9.30;5.95;;;5.00;99.90;;;;;;4146751;28;20049;-72
2020/12/04 00:34:28;;;;;;;12.40;6.28;;;5.00;99.90;;;;;;4159183;28;20033;-72
2020/12/04 00:36:28;;;;;;;10.32;6.80;;;5.00;99.90;;;;;;4160460;28;20049;-72
2020/12/04 00:38:31;;;;;;;8.73;5.90;;;5.00;99.90;;;;;;4160534;28;20037;-72
2020/12/04 00:40:32;;;;;;;8.90;5.90;;;5.00;99.90;;;;;;4160920;28;20037;-72
2020/12/04 00:42:32;;;;;;;10.02;5.90;;;5.00;99.90;;;;;;4159623;28;20033;-72
2020/12/04 00:44:33;;;;;;;9.15;6.13;;;5.00;99.90;;;;;;4160501;28;20057;-72
2020/12/04 00:46:34;;;;;;;12.25;6.88;;;5.00;99.90;;;;;;4159595;28;20055;-72
2020/12/04 00:48:35;;;;;;;8.68;5.93;;;5.00;99.90;;;;;;4153032;28;20042;-72
2020/12/04 00:50:35;;;;;;;9.10;5.78;;;5.00;99.90;;;;;;4157309;28;20038;-72
2020/12/04 00:52:36;;;;;;;10.38;6.30;;;5.00;99.90;;;;;;4159183;28;20021;-72
2020/12/04 00:54:36;;;;;;;9.00;5.68;;;5.00;99.90;;;;;;4160757;28;20033;-72
2020/12/04 00:56:37;;;;;;;8.95;5.95;;;5.00;99.90;;;;;;4159726;28;20053;-72
2020/12/04 00:58:38;;;;;;;9.32;6.10;;;5.00;99.90;;;;;;4142917;28;20030;-72
2020/12/04 01:00:39;;;;;;;10.07;5.85;;;5.00;99.90;;;;;;4158033;28;20036;-72
2020/12/04 01:02:39;;;;;;;9.80;6.05;;;5.00;99.90;;;;;;4160036;28;20037;-72
2020/12/04 01:04:40;;;;;;;9.07;5.18;;;5.00;99.90;;;;;;4153368;28;20061;-72
2020/12/04 01:06:40;;;;;;;10.07;5.55;;;5.00;99.90;;;;;;4158678;28;20508;-72
2020/12/04 01:08:42;;;;;;;10.30;5.63;;;5.00;99.90;;;;;;4160711;28;20029;-72
2020/12/04 01:10:43;;;;;;;9.15;5.60;;;5.00;99.90;;;;;;4160630;28;20733;-72
2020/12/04 01:12:45;;;;;;;7.43;5.28;;;5.00;99.90;;;;;;4160332;28;20032;-72
2020/12/04 01:14:46;;;;;;;;;;;5.00;99.90;;;;;;4158485;28;20197;-72
2020/12/04 01:16:47;;;;;;;9.35;5.22;;;5.00;99.90;;;;;;4159045;28;19913;-72
2020/12/04 01:18:48;;;;;;;11.45;5.78;;;5.00;99.90;;;;;;4160248;28;20036;-72
2020/12/04 01:20:48;;;;;;;8.73;5.32;;;5.00;99.90;;;;;;4159241;28;20108;-72
2020/12/04 01:22:49;;;;;;;10.43;5.55;;;5.00;99.90;;;;;;4158955;28;20516;-72
2020/12/04 01:24:50;;;;;;;9.10;5.43;;;5.00;99.90;;;;;;4146142;28;20105;-72
2020/12/04 01:26:50;;;;;;;7.22;5.05;;;5.00;99.90;;;;;;4152261;28;20030;-72
2020/12/04 01:28:51;;;;;;;9.95;5.75;;;5.00;99.90;;;;;;4158523;28;20750;-72
2020/12/04 01:30:52;;;;;;;8.27;5.30;;;5.00;99.90;;;;;;4158738;28;20029;-72
2020/12/04 01:32:52;;;;;;;9.90;5.95;;;5.00;99.90;;;;;;4159783;28;20100;-72
2020/12/04 01:34:53;;;;;;;10.23;5.47;;;5.00;99.90;;;;;;4159927;28;20038;-72
2020/12/04 01:36:53;;;;;;;7.93;5.22;;;5.00;99.90;;;;;;4159060;28;20099;-72
2020/12/04 01:38:54;;;;;;;9.30;5.60;;;5.00;99.90;;;;;;4158494;28;20037;-72
2020/12/04 01:41:00;;;;;;;9.85;5.70;;;5.00;99.90;;;;;;4159504;28;20037;-72
2020/12/04 01:43:01;;;;;;;9.57;5.20;;;5.00;99.90;;;;;;4129608;28;20042;-72
2020/12/04 01:45:03;;;;;;;9.38;6.05;;;5.00;99.90;;;;;;4143889;28;20044;-72
2020/12/04 01:47:04;;;;;;;8.77;5.53;;;5.00;99.90;;;;;;4143673;28;20041;-72
2020/12/04 01:49:05;;;;;;;7.88;5.28;;;5.00;99.90;;;;;;4143978;28;20549;-72
2020/12/04 01:51:06;;;;;;;10.05;6.00;;;4.90;99.90;;;;;;4142193;28;20060;-72
2020/12/04 01:53:07;;;;;;;10.27;5.55;;;5.00;99.90;;;;;;4144074;28;20351;-72
2020/12/04 01:55:07;;;;;;;11.13;5.82;;;4.90;99.90;;;;;;4143831;28;20037;-72
2020/12/04 01:57:08;;;;;;;7.97;5.30;;;4.90;99.90;;;;;;4142065;28;20026;-72
2020/12/04 01:59:08;;;;;;;8.77;5.47;;;4.90;99.90;;;;;;4145277;28;20173;-72
2020/12/04 02:01:14;;;;;;;9.30;5.45;;;4.90;99.90;;;;;;4159590;28;20369;-72
2020/12/04 02:03:16;;;;;;;8.50;5.85;;;4.90;99.90;;;;;;4158292;28;20037;-72
2020/12/04 02:05:16;;;;;;;9.57;5.60;;;4.90;99.90;;;;;;4160120;28;20037;-72
2020/12/04 02:07:40;;;;;;;9.80;5.53;;;5.00;99.90;;;;;;4160233;28;20025;-72
2020/12/04 02:09:46;;;;;;;8.70;5.30;;;5.00;99.90;;;;;;4149755;28;20558;-72
2020/12/04 02:11:48;;;;;;;8.40;4.88;;;5.00;99.90;;;;;;4160136;28;20109;-72
2020/12/04 02:13:50;;;;;;;9.32;5.60;;;5.00;99.90;;;;;;4158620;28;20022;-72
2020/12/04 02:15:51;;;;;;;10.00;5.32;;;5.00;99.90;;;;;;4157624;28;20053;-72
2020/12/04 02:17:56;;;;;;;10.57;5.95;;;5.00;99.90;;;;;;4160128;28;20029;-72
2020/12/04 02:19:57;;;;;;;10.30;5.95;;;5.00;99.90;;;;;;4159835;28;20041;-72
2020/12/04 02:21:59;;;;;;;9.43;5.88;;;5.00;99.90;;;;;;4158304;28;20033;-72
2020/12/04 02:24:00;;;;;;;8.82;5.70;;;5.00;99.90;;;;;;4160134;28;20488;-73
2020/12/04 02:26:02;;;;;;;9.02;6.25;;;5.00;99.90;;;;;;4161814;28;20358;-72
2020/12/04 02:28:03;;;;;;;8.82;6.00;;;5.00;99.90;;;;;;4157432;28;20527;-72
2020/12/04 02:30:04;;;;;;;9.63;5.57;;;5.00;99.90;;;;;;4150241;28;20162;-72
2020/12/04 02:32:10;;;;;;;8.73;5.85;;;5.00;99.90;;;;;;4160862;28;20041;-73
2020/12/04 02:34:10;;;;;;;9.68;5.65;;;5.00;99.90;;;;;;4154067;28;20120;-72
2020/12/04 02:36:11;;;;;;;7.80;5.38;;;5.00;99.90;;;;;;4157752;28;20121;-72
2020/12/04 02:38:12;;;;;;;7.75;5.57;;;5.00;99.90;;;;;;4159765;28;20039;-72
2020/12/04 02:40:13;;;;;;;8.25;5.15;;;5.10;99.90;;;;;;4162915;28;20034;-73
2020/12/04 02:42:13;;;;;;;8.85;5.88;;;5.10;99.90;;;;;;4162652;28;20044;-72
2020/12/04 02:44:14;;;;;;;7.57;5.18;;;5.10;99.90;;;;;;4153880;28;20034;-72
2020/12/04 02:46:14;;;;;;;6.65;5.25;;;5.10;99.90;;;;;;4157018;28;20037;-73
2020/12/04 02:48:15;;;;;;;8.43;5.55;;;5.10;99.90;;;;;;4162530;28;20394;-72
2020/12/04 02:50:16;;;;;;;9.85;5.50;;;5.10;99.90;;;;;;4162208;28;20124;-72
2020/12/04 02:52:22;;;;;;;10.32;5.50;;;5.10;99.90;;;;;;4162427;28;20026;-72
2020/12/04 02:54:23;;;;;;;8.85;5.18;;;5.20;99.90;;;;;;4162566;28;20042;-72
2020/12/04 02:56:23;;;;;;;7.97;5.47;;;5.20;99.90;;;;;;4152457;28;20100;-72
2020/12/04 02:58:24;;;;;;;8.88;5.78;;;5.10;99.90;;;;;;4144848;28;20065;-72
2020/12/04 03:00:26;;;;;;;9.15;5.50;;;5.10;99.90;;;;;;4146283;28;20041;-72
2020/12/04 03:02:26;;;;;;;7.05;5.03;;;5.10;99.90;;;;;;4155337;28;20559;-72
2020/12/04 03:04:27;;;;;;;8.35;5.07;;;5.20;99.90;;;;;;4157886;28;20030;-72
2020/12/04 03:06:27;;;;;;;6.93;5.03;;;5.20;99.90;;;;;;4158404;28;20381;-72
2020/12/04 03:08:29;;;;;;;7.78;5.13;;;5.10;99.90;;;;;;4162306;28;20521;-72
2020/12/04 03:10:29;;;;;;;7.68;5.20;;;5.20;99.90;;;;;;4153835;28;20037;-72
2020/12/04 03:12:30;;;;;;;6.97;5.10;;;5.20;99.90;;;;;;4162267;28;21526;-72
2020/12/04 03:14:31;;;;;;;7.65;5.13;;;5.20;99.90;;;;;;4160874;28;20160;-72
2020/12/04 03:16:32;;;;;;;7.75;5.03;;;5.20;99.90;;;;;;4161475;28;20065;-72
2020/12/04 03:18:32;;;;;;;8.73;4.97;;;5.20;99.90;;;;;;4156350;28;20416;-72
2020/12/04 03:20:33;;;;;;;7.22;4.93;;;5.20;99.90;;;;;;4145301;28;20030;-72
2020/12/04 03:22:33;;;;;;;7.32;5.35;;;5.20;99.90;;;;;;4145463;28;20038;-72
2020/12/04 03:24:35;;;;;;;6.65;4.88;;;5.20;99.90;;;;;;4145638;28;20041;-72
2020/12/04 03:26:35;;;;;;;6.28;4.57;;;5.20;99.90;;;;;;4145754;28;20662;-72
2020/12/04 03:28:36;;;;;;;7.03;5.15;;;5.20;99.90;;;;;;4145233;28;20026;-73
2020/12/04 03:30:37;;;;;;;8.07;5.00;;;5.20;99.90;;;;;;4161992;28;20033;-72
2020/12/04 03:32:38;;;;;;;7.07;4.80;;;5.30;99.90;;;;;;4161581;28;20118;-73
2020/12/04 03:34:39;;;;;;;8.00;4.72;;;5.20;99.90;;;;;;4158506;28;20393;-72
2020/12/04 03:36:39;;;;;;;7.50;4.60;;;5.30;99.90;;;;;;4160411;28;20099;-72
2020/12/04 03:38:41;;;;;;;6.20;4.53;;;5.20;99.90;;;;;;4159806;28;20030;-72
2020/12/04 03:40:44;;;;;;;6.78;4.65;;;5.20;99.90;;;;;;4160133;28;20515;-73
2020/12/04 03:42:45;;;;;;;7.45;5.10;;;5.30;99.90;;;;;;4161827;28;20036;-72
2020/12/04 03:44:45;;;;;;;7.28;4.95;;;5.30;99.90;;;;;;4162063;28;20026;-73
2020/12/04 03:46:47;;;;;;;7.70;4.53;;;5.20;99.90;;;;;;4161178;28;20044;-72
2020/12/04 03:48:48;;;;;;;7.38;5.03;;;5.30;99.90;;;;;;4160063;28;20569;-72
2020/12/04 03:50:48;;;;;;;7.78;5.35;;;5.30;99.90;;;;;;4151499;28;20053;-72
2020/12/04 03:52:49;;;;;;;8.57;5.93;;;5.20;99.90;;;;;;4155424;28;20056;-72
2020/12/04 03:54:50;;;;;;;6.88;4.90;;;5.20;99.90;;;;;;4161714;28;20099;-72
2020/12/04 03:56:50;;;;;;;8.18;5.18;;;5.20;99.90;;;;;;4161363;28;20060;-72
2020/12/04 03:58:51;;;;;;;9.27;5.53;;;5.10;99.90;;;;;;4161426;28;20037;-72
2020/12/04 04:00:52;;;;;;;9.00;5.35;;;5.20;99.90;;;;;;4159540;28;20608;-73
2020/12/04 04:02:52;;;;;;;10.27;5.40;;;5.20;99.90;;;;;;4159445;28;20033;-72
2020/12/04 04:04:53;;;;;;;7.20;4.97;;;5.20;99.90;;;;;;4161085;28;20047;-72
2020/12/04 04:06:53;;;;;;;8.75;5.20;;;5.20;99.90;;;;;;4156907;28;20124;-72
2020/12/04 04:08:54;;;;;;;7.90;5.07;;;5.20;99.90;;;;;;4162104;28;20065;-72
2020/12/04 04:10:55;;;;;;;8.43;5.32;;;5.20;99.90;;;;;;4161244;28;20044;-72
2020/12/04 04:12:55;;;;;;;6.65;4.90;;;5.20;99.90;;;;;;4150503;28;20030;-72
2020/12/04 04:14:56;;;;;;;8.02;4.95;;;5.20;99.90;;;;;;4143655;28;20029;-72
2020/12/04 04:16:57;;;;;;;6.63;5.03;;;5.20;99.90;;;;;;4144251;28;20390;-72
2020/12/04 04:18:57;;;;;;;7.68;4.97;;;5.20;99.90;;;;;;4161345;28;20095;-72
2020/12/04 04:20:58;;;;;;;8.20;5.00;;;5.20;99.90;;;;;;4160996;28;20026;-72
2020/12/04 04:22:59;;;;;;;6.10;4.45;;;5.20;99.90;;;;;;4154908;28;20117;-72
2020/12/04 04:25:00;;;;;;;8.05;4.75;;;5.20;99.90;;;;;;4159161;28;20049;-72
2020/12/04 04:27:00;;;;;;;7.35;4.63;;;5.30;99.90;;;;;;4161210;28;20041;-72
2020/12/04 04:29:01;;;;;;;6.03;4.50;;;5.30;99.90;;;;;;4159566;28;20049;-72
2020/12/04 04:31:02;;;;;;;7.28;5.22;;;5.30;99.90;;;;;;4161009;28;20048;-72
2020/12/04 04:33:03;;;;;;;7.43;4.70;;;5.30;99.90;;;;;;4159464;28;20026;-72
2020/12/04 04:35:05;;;;;;;7.43;4.45;;;5.30;99.90;;;;;;4160506;28;20033;-72
2020/12/04 04:37:05;;;;;;;6.93;5.10;;;5.40;99.90;;;;;;4160822;28;20030;-72
2020/12/04 04:39:06;;;;;;;7.53;4.90;;;5.40;99.90;;;;;;4156665;28;20794;-72
2020/12/04 04:41:08;;;;;;;6.38;4.35;;;5.40;99.90;;;;;;4160446;28;20034;-72
2020/12/04 04:43:11;;;;;;;6.97;4.57;;;5.40;99.90;;;;;;4161149;28;22584;-72
2020/12/04 04:45:15;;;;;;;7.13;4.85;;;5.40;99.90;;;;;;4160090;28;20033;-72
2020/12/04 04:47:20;;;;;;;7.13;4.93;;;5.40;99.90;;;;;;4156117;28;20042;-72
2020/12/04 04:49:29;;;;;;;6.35;4.47;;;5.40;99.90;;;;;;4143641;28;20030;-73
2020/12/04 04:51:30;;;;;;;5.90;3.95;;;5.40;99.90;;;;;;4143968;28;20415;-72
2020/12/04 04:53:31;;;;;;;6.60;4.82;;;5.40;99.90;;;;;;4148518;28;20088;-72
2020/12/04 04:55:32;;;;;;;5.45;4.20;;;5.50;99.90;;;;;;4150378;28;20482;-72
2020/12/04 04:57:32;;;;;;;5.20;3.75;;;5.50;99.90;;;;;;4142869;28;20200;-72
2020/12/04 04:59:33;;;;;;;6.85;4.50;;;5.50;99.90;;;;;;4142883;28;20132;-72
2020/12/04 05:01:34;;;;;;;6.13;4.30;;;5.50;99.90;;;;;;4143460;28;20456;-73
2020/12/04 05:03:35;;;;;;;5.72;3.90;;;5.50;99.90;;;;;;4154237;28;20057;-73
2020/12/04 05:05:46;;;;;;;5.53;3.95;;;5.50;99.90;;;;;;4158792;28;20512;-73
2020/12/04 05:07:47;;;;;;;5.70;3.92;;;5.60;99.90;;;;;;4160605;28;20045;-72
2020/12/04 05:09:48;;;;;;;5.93;4.28;;;5.60;99.90;;;;;;4159805;28;20030;-72
2020/12/04 05:11:59;;;;;;;7.65;4.22;;;5.60;99.90;;;;;;4155395;28;20038;-72
2020/12/04 05:14:14;;;;;;;5.50;3.85;;;5.60;99.90;;;;;;4158594;28;20037;-73
2020/12/04 05:16:29;;;;;;;6.45;3.90;;;5.60;99.90;;;;;;4160306;28;20033;-72
2020/12/04 05:18:30;;;;;;;6.50;3.72;;;5.60;99.90;;;;;;4160208;28;20040;-73
2020/12/04 05:20:30;;;;;;;5.25;3.15;;;5.60;99.90;;;;;;4158038;28;20037;-72
2020/12/04 05:22:31;;;;;;;5.68;3.58;;;5.70;99.90;;;;;;4153730;28;20120;-72
2020/12/04 05:24:32;;;;;;;6.60;3.42;;;5.70;99.90;;;;;;4142812;28;20046;-73
2020/12/04 05:26:37;;;;;;;5.13;3.25;;;5.70;99.90;;;;;;4159901;28;20026;-72
2020/12/04 05:28:37;;;;;;;4.55;3.60;;;5.70;99.90;;;;;;4158185;28;20041;-73
2020/12/04 05:30:43;;;;;;;4.60;3.42;;;5.70;99.90;;;;;;4154745;28;20039;-73
2020/12/04 05:32:44;;;;;;;6.00;3.83;;;5.70;99.90;;;;;;4157441;28;20038;-73
2020/12/04 05:34:45;;;;;;;4.50;3.35;;;5.80;99.90;;;;;;4151624;28;20572;-73
2020/12/04 05:36:48;;;;;;;7.20;3.53;;;5.80;99.90;;;;;;4151314;28;20044;-73
2020/12/04 05:38:53;;;;;;;5.53;3.72;;;5.80;99.90;;;;;;4149421;28;20109;-73
2020/12/04 05:41:05;;;;;;;6.78;3.63;;;5.80;99.90;;;;;;4150565;28;20030;-73
2020/12/04 05:43:05;;;;;;;4.80;3.20;;;5.80;99.90;;;;;;4156355;28;20061;-73
2020/12/04 05:45:07;;;;;;;5.72;3.40;;;5.90;99.90;;;;;;4156238;28;20606;-73
2020/12/04 05:47:08;;;;;;;5.45;3.65;;;5.80;99.90;;;;;;4142135;28;20041;-73
2020/12/04 05:49:09;;;;;;;7.13;3.42;;;5.90;99.90;;;;;;4156544;28;20128;-73
2020/12/04 05:51:12;;;;;;;5.05;3.20;;;5.90;99.90;;;;;;4154282;28;20500;-72
2020/12/04 05:53:13;;;;;;;6.05;3.53;;;5.90;99.90;;;;;;4158947;28;20751;-72
2020/12/04 05:55:13;;;;;;;4.55;3.08;;;5.90;99.90;;;;;;4159854;28;20071;-73
2020/12/04 05:57:16;;;;;;;5.53;3.50;;;5.90;99.90;;;;;;4148206;28;20038;-72
2020/12/04 05:59:20;;;;;;;4.25;3.05;;;5.90;99.90;;;;;;4143079;28;20095;-73
2020/12/04 06:01:22;;;;;;;4.75;3.45;;;5.90;99.90;;;;;;4151432;28;20056;-73
2020/12/04 06:03:23;;;;;;;4.00;2.70;;;6.00;99.90;;;;;;4151089;28;20057;-72
2020/12/04 06:05:26;;;;;;;10.82;6.55;;;6.00;99.90;;;;;;4157137;28;20038;-73
2020/12/04 06:07:28;;;;;;;21.10;10.52;;;6.00;99.90;;;;;;4160182;28;20365;-73
2020/12/04 06:09:28;;;;;;;6.57;3.78;;;6.00;99.90;;;;;;4163522;28;20056;-73
2020/12/04 06:11:34;;;;;;;4.65;3.35;;;6.00;99.90;;;;;;4158631;28;20461;-73
2020/12/04 06:13:36;;;;;;;4.53;3.20;;;6.00;99.90;;;;;;4158222;28;20029;-73
2020/12/04 06:15:36;;;;;;;4.35;3.03;;;6.00;99.90;;;;;;4160497;28;20046;-73
2020/12/04 06:17:37;;;;;;;4.50;3.33;;;6.00;99.90;;;;;;4162947;28;20496;-73
2020/12/04 06:19:42;;;;;;;6.05;3.22;;;6.10;99.90;;;;;;4153106;28;20113;-73
2020/12/04 06:21:47;;;;;;;3.58;2.80;;;6.00;99.90;;;;;;4146108;28;20034;-73
2020/12/04 06:24:06;;;;;;;3.70;2.55;;;6.00;99.90;;;;;;4129082;28;20038;-73
2020/12/04 06:26:07;;;;;;;5.05;3.40;;;6.10;99.90;;;;;;4153803;28;20044;-73
2020/12/04 06:28:16;;;;;;;5.78;3.20;;;6.10;99.90;;;;;;4156595;28;20091;-73
2020/12/04 06:30:18;;;;;;;5.15;3.15;;;6.10;99.90;;;;;;4155279;28;20103;-73
2020/12/04 06:32:47;;;;;;;5.40;3.00;;;6.10;99.90;;;;;;4146286;28;20113;-73
2020/12/04 06:34:47;;;;;;;4.43;3.03;;;6.10;99.90;;;;;;4155618;28;20124;-72
2020/12/04 06:36:49;;;;;;;3.95;2.70;;;6.10;99.90;;;;;;4140218;28;20048;-72
2020/12/04 06:38:52;;;;;;;3.65;2.40;;;6.10;99.90;;;;;;4137538;28;20473;-73
2020/12/04 06:41:35;;;;;;;3.63;2.50;;;6.10;99.90;;;;;;4161034;28;20035;-73
2020/12/04 06:43:36;;;;;;;5.65;3.03;;;6.10;99.90;;;;;;4161818;28;20029;-72
2020/12/04 06:45:48;;;;;;;6.25;3.38;;;6.20;99.90;;;;;;4159520;28;20029;-73
2020/12/04 06:48:17;;;;;;;3.63;2.43;;;6.20;99.90;;;;;;4158896;28;20365;-73
2020/12/04 06:50:37;;;;;;;5.28;2.60;;;6.20;99.90;;;;;;4162437;28;20355;-72
2020/12/04 06:52:38;;;;;;;2.67;2.10;;;6.20;99.90;;;;;;4156007;28;20034;-72
2020/12/04 06:54:40;;;;;;;3.60;2.40;;;6.20;99.90;;;;;;4160813;28;20367;-73
2020/12/04 06:56:41;;;;;;;3.72;2.40;;;6.20;99.90;;;;;;4162622;28;20030;-72
2020/12/04 06:58:41;;;;;;;2.92;2.20;;;6.20;99.90;;;;;;4152859;28;20030;-73
2020/12/04 07:00:42;;;;;;;4.10;2.38;;;6.30;99.90;;;;;;4149769;28;20042;-73
2020/12/04 07:02:43;;;;;;;2.95;2.17;;;6.30;99.90;;;;;;4161828;28;20075;-72
2020/12/04 07:04:52;;;;;;;4.07;2.28;;;6.30;99.90;;;;;;4158017;28;20033;-73
2020/12/04 07:07:01;;;;;;;2.75;2.25;;;6.30;99.90;;;;;;4162108;28;20087;-74
2020/12/04 07:09:03;;;;;;;3.65;2.25;;;6.40;99.90;;;;;;4160698;28;20113;-74
2020/12/04 07:11:03;;;;;;;3.47;2.42;;;6.30;99.90;;;;;;4161993;28;20414;-74
2020/12/04 07:13:05;;;;;;;3.63;2.60;;;6.40;99.90;;;;;;4156501;28;20104;-74
2020/12/04 07:15:06;;;;;;;4.65;2.83;;;6.40;99.90;;;;;;4161573;28;20414;-74
2020/12/04 07:17:06;;;;;;;3.42;2.47;;;6.40;99.90;;;;;;4160662;28;20033;-74
2020/12/04 07:19:07;;;;;;;3.45;2.30;;;6.40;99.90;;;;;;4160753;28;20041;-74
2020/12/04 07:21:08;;;;;;;4.90;2.13;;;6.40;99.90;;;;;;4156223;28;20029;-74
2020/12/04 07:23:08;;;;;;;3.25;2.40;;;6.40;99.90;;;;;;4160478;28;20480;-74
2020/12/04 07:25:09;;;;;;;3.00;2.28;;;6.40;99.90;;;;;;4158042;28;20099;-74
2020/12/04 07:27:16;;;;;;;4.93;2.38;;;6.40;99.90;;;;;;4158670;28;20041;-74
2020/12/04 07:29:17;;;;;;;4.45;2.47;;;6.40;99.90;;;;;;4151321;28;20053;-74
2020/12/04 07:31:20;;;;;;;2.83;2.42;;;6.40;99.90;;;;;;4160828;28;20041;-74
2020/12/04 07:33:20;;;;;;;3.55;2.45;;;6.40;99.90;;;;;;4157899;28;20044;-74
2020/12/04 07:35:23;;;;;;;4.22;2.58;;;6.50;99.90;;;;;;4155760;28;20038;-74
2020/12/04 07:37:27;;;;;;;4.63;3.03;;;6.50;99.90;;;;;;4156405;28;20064;-74
2020/12/04 07:39:31;;;;;;;4.97;3.13;;;6.50;99.90;;;;;;4160441;28;20033;-74
2020/12/04 07:41:38;;;;;;;5.65;3.33;;;6.50;99.90;;;;;;4160021;28;20034;-74
2020/12/04 07:43:43;;;;;;;7.65;3.30;;;6.50;99.90;;;;;;4159726;28;20100;-74
2020/12/04 07:45:43;;;;;;;4.53;2.53;;;6.60;99.90;;;;;;4159935;28;20045;-74
2020/12/04 07:47:44;;;;;;;5.95;3.35;;;6.60;99.90;;;;;;4142967;28;20041;-74
2020/12/04 07:49:50;;;;;;;4.18;2.90;;;6.60;99.90;;;;;;4161617;28;20056;-74
2020/12/04 07:51:51;;;;;;;5.28;3.20;;;6.60;99.90;;;;;;4161708;28;20025;-74
2020/12/04 07:53:54;;;;;;;5.97;3.53;;;6.60;99.90;;;;;;4154060;28;20118;-74
2020/12/04 07:55:56;;;;;;;4.45;2.97;;;6.60;99.90;;;;;;4150865;28;20484;-74
2020/12/04 07:58:10;;;;;;;5.45;2.67;;;6.70;99.90;;;;;;4161181;28;20094;-74
2020/12/04 08:00:14;;;;;;;4.70;3.05;;;6.70;99.90;;;;;;4161798;28;20030;-74
2020/12/04 08:02:22;;;;;;;5.22;3.33;;;6.80;99.90;;;;;;4159613;28;20126;-74
2020/12/04 08:04:23;;;;;;;11.52;3.30;;;6.80;99.90;;;;;;4161326;28;20674;-74
2020/12/04 08:06:26;;;;;;;4.00;2.55;;;6.80;99.90;;;;;;4160029;28;20056;-74
2020/12/04 08:08:27;;;;;;;4.30;2.38;;;6.80;99.90;;;;;;4160742;28;20038;-75
2020/12/04 08:10:28;;;;;;;3.45;2.10;;;6.80;99.90;;;;;;4156965;28;20121;-74
2020/12/04 08:12:29;;;;;;;3.28;2.25;;;6.80;99.90;;;;;;4158062;28;20037;-74
2020/12/04 08:14:34;;;;;;;3.47;2.28;;;6.90;99.90;;;;;;4145609;28;20057;-73
2020/12/04 08:16:37;;;;;;;4.82;2.83;;;6.90;99.90;;;;;;4144704;28;20041;-74
2020/12/04 08:18:38;;;;;;;4.07;2.53;;;6.90;99.90;;;;;;4158611;28;20064;-74
2020/12/04 08:20:39;;;;;;;3.72;2.30;;;6.90;99.90;;;;;;4159143;28;20112;-78
2020/12/04 08:22:39;;;;;;;4.40;2.10;;;6.90;99.90;;;;;;4161492;28;20036;-74
2020/12/04 08:24:50;;;;;;;3.80;2.45;;;6.90;99.90;;;;;;4153450;28;20113;-74
2020/12/04 08:27:09;;;;;;;2.72;2.05;;;6.90;99.90;;;;;;4147427;28;20045;-74
2020/12/04 08:29:12;;;;;;;4.43;1.98;;;7.00;99.90;;;;;;4141885;28;20045;-74
2020/12/04 08:31:22;;;;;;;3.05;2.10;;;7.00;99.90;;;;;;4152499;28;20052;-74
2020/12/04 08:33:22;;;;;;;3.30;2.22;;;7.00;99.90;;;;;;4151235;28;20507;-74
2020/12/04 08:35:24;;;;;;;2.67;1.58;;;7.10;99.90;;;;;;4157775;28;20041;-74
2020/12/04 08:37:28;;;;;;;2.90;1.67;;;7.10;99.90;;;;;;4152665;28;20034;-74
2020/12/04 08:39:44;;;;;;;3.00;1.50;;;7.10;99.90;;;;;;4146587;28;20045;-74
2020/12/04 08:41:45;;;;;;;2.50;1.88;;;7.10;99.90;;;;;;4144952;28;20581;-74
2020/12/04 08:43:49;;;;;;;2.58;1.70;;;7.10;99.90;;;;;;4161279;28;20045;-74
2020/12/04 08:45:55;;;;;;;3.10;1.83;;;7.20;99.90;;;;;;4155094;28;20060;-74
2020/12/04 08:48:06;;;;;;;3.33;1.23;;;7.20;99.90;;;;;;4142789;28;20029;-74
2020/12/04 08:50:09;;;;;;;1.73;1.23;;;7.20;99.90;;;;;;4156193;28;21020;-74
2020/12/04 08:52:10;;;;;;;2.90;1.42;;;7.30;99.90;;;;;;4154096;28;20045;-74
2020/12/04 08:54:10;;;;;;;2.58;1.80;;;7.30;99.90;;;;;;4159781;28;20034;-74
2020/12/04 08:56:24;;;;;;;2.80;1.90;;;7.30;99.90;;;;;;4160342;28;20049;-74
2020/12/04 08:58:27;;;;;;;2.28;1.48;;;7.30;99.90;;;;;;4156256;28;20117;-74
2020/12/04 09:00:30;;;;;;;4.57;1.38;;;7.40;99.90;;;;;;4149725;28;20525;-74
2020/12/04 09:02:30;;;;;;;;;;;7.40;99.90;;;;;;4077599;28;20105;-74
2020/12/04 09:04:34;;;;;;;3.85;1.30;;;7.40;99.90;;;;;;4160328;28;19932;-74
2020/12/04 09:06:35;;;;;;;2.35;1.40;;;7.40;99.90;;;;;;4160123;28;20037;-73
2020/12/04 09:08:38;;;;;;;2.53;1.40;;;7.40;99.90;;;;;;4162311;28;20033;-74
2020/12/04 09:10:39;;;;;;;3.03;1.50;;;7.50;99.90;;;;;;4146708;28;20164;-74
2020/12/04 09:12:40;;;;;;;3.75;2.05;;;7.50;99.90;;;;;;4156170;28;20060;-74
2020/12/04 09:14:41;;;;;;;5.93;1.40;;;7.50;99.90;;;;;;4155874;28;20036;-74
2020/12/04 09:16:42;;;;;;;2.70;1.85;;;7.50;99.90;;;;;;4133875;28;20481;-74
2020/12/04 09:18:42;;;;;;;3.83;1.60;;;7.50;99.90;;;;;;4160199;28;20038;-75
2020/12/04 09:20:43;;;;;;;3.97;1.45;;;7.60;99.90;;;;;;4160739;28;20103;-74
2020/12/04 09:22:44;;;;;;;3.80;1.60;;;7.60;99.90;;;;;;4159192;28;20511;-74
2020/12/04 09:24:45;;;;;;;2.22;1.23;;;7.60;99.90;;;;;;4159635;28;20032;-74
2020/12/04 09:26:46;;;;;;;2.33;1.52;;;7.60;99.90;;;;;;4161126;28;20460;-74
2020/12/04 09:28:46;;;;;;;2.00;1.30;;;7.60;99.90;;;;;;4150866;28;20053;-74
2020/12/04 09:30:47;;;;;;;3.42;1.42;;;7.70;99.90;;;;;;4154842;28;20445;-74
2020/12/04 09:32:50;;;;;;;1.98;1.25;;;7.70;99.90;;;;;;4160539;28;20044;-74
2020/12/04 09:34:51;;;;;;;3.72;1.55;;;7.70;99.90;;;;;;4160063;28;20091;-75
2020/12/04 09:36:51;;;;;;;4.85;1.52;;;7.70;99.90;;;;;;4169432;28;20041;-74
2020/12/04 09:38:52;;;;;;;3.70;1.10;;;7.80;99.90;;;;;;4167091;28;20099;-74
2020/12/04 09:40:53;;;;;;;8.20;1.55;;;7.80;99.90;;;;;;4161158;28;20067;-75
2020/12/04 09:42:53;;;;;;;4.00;1.10;;;7.80;99.90;;;;;;4161572;28;20045;-74
2020/12/04 09:44:55;;;;;;;1.70;1.27;;;7.80;99.90;;;;;;4159672;28;20041;-73
2020/12/04 09:46:55;;;;;;;2.40;1.27;;;7.80;99.90;;;;;;4160947;28;20099;-73
2020/12/04 09:48:56;;;;;;;3.50;1.30;;;7.80;99.90;;;;;;4153471;28;20068;-73
2020/12/04 09:50:57;;;;;;;2.25;1.00;;;7.90;99.90;;;;;;4129366;28;20034;-73
2020/12/04 09:52:57;;;;;;;2.45;1.33;;;7.90;99.90;;;;;;4147786;28;20084;-73
2020/12/04 09:54:58;;;;;;;1.88;1.20;;;7.90;99.90;;;;;;4147179;28;20045;-73
2020/12/04 09:56:59;;;;;;;2.55;1.15;;;8.00;99.90;;;;;;4146517;28;20057;-73
2020/12/04 09:58:59;;;;;;;4.00;1.88;;;8.00;99.90;;;;;;4152352;28;20038;-73
2020/12/04 10:01:00;;;;;;;2.95;1.23;;;8.10;99.90;;;;;;4157057;28;20025;-73
2020/12/04 10:03:01;;;;;;;1.60;1.00;;;8.10;99.90;;;;;;4160606;28;20041;-73
2020/12/04 10:05:02;;;;;;;2.67;1.40;;;8.10;99.90;;;;;;4160885;28;20045;-73
2020/12/04 10:07:03;;;;;;;2.17;1.45;;;8.10;99.90;;;;;;4159055;28;20037;-73
2020/12/04 10:09:04;;;;;;;3.72;1.08;;;8.10;99.90;;;;;;4159746;28;20112;-72
2020/12/04 10:11:04;;;;;;;3.08;1.20;;;8.10;99.90;;;;;;4161690;28;20050;-73
2020/12/04 10:13:05;;;;;;;2.88;1.00;;;8.10;99.90;;;;;;4161734;28;20033;-73
2020/12/04 10:15:05;;;;;;;3.00;1.40;;;8.10;99.90;;;;;;4154074;28;20037;-73
2020/12/04 10:17:08;;;;;;;3.75;1.48;;;8.10;99.90;;;;;;4146037;28;20096;-73
2020/12/04 10:19:10;;;;;;;4.20;1.50;;;8.10;99.90;;;;;;4152579;28;20030;-73
2020/12/04 10:21:11;;;;;;;;;;;8.10;99.90;;;;;;4161124;28;20091;-73
2020/12/04 10:23:11;;;;;;;3.20;1.27;;;8.10;99.90;;;;;;4160468;28;19971;-73
2020/12/04 10:25:12;;;;;;;2.22;1.20;;;8.10;99.90;;;;;;4159926;28;20103;-73
2020/12/04 10:27:13;;;;;;;1.90;1.50;;;8.20;99.90;;;;;;4162072;28;20088;-73
2020/12/04 10:29:14;;;;;;;3.35;1.45;;;8.20;99.90;;;;;;4146920;28;20084;-73
2020/12/04 10:31:15;;;;;;;5.28;1.08;;;8.30;99.90;;;;;;4159702;28;20033;-73
2020/12/04 10:33:15;;;;;;;1.52;1.08;;;8.30;99.90;;;;;;4161207;28;20037;-73
2020/12/04 10:35:16;;;;;;;2.63;1.20;;;8.30;99.90;;;;;;4158603;28;20500;-73
2020/12/04 10:37:16;;;;;;;2.10;1.20;;;8.30;99.90;;;;;;4162050;28;20041;-73
2020/12/04 10:39:17;;;;;;;2.88;1.27;;;8.30;99.90;;;;;;4160977;28;20036;-74
2020/12/04 10:41:18;;;;;;;1.98;1.00;;;8.40;99.90;;;;;;4161098;28;20033;-74
2020/12/04 10:43:18;;;;;;;2.03;1.08;;;8.40;99.90;;;;;;4157125;28;20038;-74
2020/12/04 10:45:19;;;;;;;4.07;1.48;;;8.40;99.90;;;;;;4145087;28;20072;-74